Time;durP1;ratioP1;P1;durP2;ratioP2;P2;SDS_P1;SDS_P2;PMS_P1;PMS_P2;Temp;Humidity;BMP_temperature;BMP_pressure;BME280_temperature;BME280_humidity;BME280_pressure;Samples;Min_cycle;Max_cycle;Signal;HPM_P1;HPM_P2
2022/01/16 00:01:02;;;;;;;4.65;2.80;;;;;;;-1.43;71.88;98375.13;5040325;28;20349;-57
2022/01/16 00:06:13;;;;;;;3.25;2.08;;;;;;;-1.57;71.33;98365.78;5055785;28;20025;-58
2022/01/16 00:08:39;;;;;;;2.88;1.88;;;;;;;-1.61;72.34;98355.56;5045788;28;20032;-58
2022/01/16 00:11:04;;;;;;;3.70;2.05;;;;;;;-1.69;71.79;98353.00;5042275;28;20022;-58
2022/01/16 00:13:30;;;;;;;2.75;1.80;;;;;;;-1.72;72.27;98358.06;5042528;28;20033;-58
2022/01/16 00:15:56;;;;;;;3.38;2.50;;;;;;;-1.66;72.19;98365.69;5052555;28;20029;-57
2022/01/16 00:18:28;;;;;;;4.20;2.13;;;;;;;-1.79;72.42;98329.25;5043573;28;20057;-57
2022/01/16 00:20:54;;;;;;;2.90;1.90;;;;;;;-1.63;73.78;98347.94;5046261;28;20045;-58
2022/01/16 00:23:28;;;;;;;3.72;2.20;;;;;;;-1.67;73.04;98345.38;5054454;28;20037;-57
2022/01/16 00:25:56;;;;;;;4.38;1.85;;;;;;;-1.76;73.48;98374.94;5046691;28;20341;-57
2022/01/16 00:28:23;;;;;;;4.75;2.33;;;;;;;-1.73;73.09;98351.28;5046411;28;20021;-57
2022/01/16 00:30:50;;;;;;;2.45;2.00;;;;;;;-1.75;72.74;98353.81;5054691;28;20092;-59
2022/01/16 00:33:16;;;;;;;3.17;2.00;;;;;;;-1.68;73.12;98354.69;5047818;28;20025;-58
2022/01/16 00:35:42;;;;;;;2.70;1.77;;;;;;;-1.58;73.55;98365.75;5046719;28;20036;-58
2022/01/16 00:38:09;;;;;;;2.90;1.73;;;;;;;-1.54;73.03;98362.38;5045435;28;20025;-58
2022/01/16 00:40:34;;;;;;;2.92;2.08;;;;;;;-1.56;73.23;98364.06;5046506;28;20056;-58
2022/01/16 00:43:01;;;;;;;3.03;2.03;;;;;;;-1.46;74.36;98362.44;5048352;28;20052;-56
2022/01/16 00:45:29;;;;;;;3.20;1.75;;;;;;;-1.57;73.20;98353.06;5045538;28;20024;-56
2022/01/16 00:47:55;;;;;;;4.32;1.98;;;;;;;-1.63;73.99;98370.78;5045509;28;20026;-55
2022/01/16 00:50:22;;;;;;;3.30;2.20;;;;;;;-1.55;74.07;98386.09;5047985;28;20086;-56
2022/01/16 00:52:47;;;;;;;2.72;2.10;;;;;;;-1.67;73.30;98386.00;5046046;28;20034;-57
2022/01/16 00:55:13;;;;;;;4.70;2.58;;;;;;;-1.71;74.22;98381.75;5046266;28;20040;-56
2022/01/16 00:57:38;;;;;;;3.35;2.58;;;;;;;-1.58;73.98;98391.97;5046167;28;20021;-56
2022/01/16 01:00:06;;;;;;;2.92;2.17;;;;;;;-1.55;73.89;98421.63;5046218;28;20076;-56
2022/01/16 01:02:31;;;;;;;3.60;2.10;;;;;;;-1.56;73.45;98420.75;5046204;28;20151;-56
2022/01/16 01:04:57;;;;;;;2.75;2.03;;;;;;;-1.51;73.46;98425.88;5046965;28;20041;-56
2022/01/16 01:07:22;;;;;;;2.38;1.73;;;;;;;-1.45;74.28;98427.63;5045967;28;20034;-56
2022/01/16 01:09:48;;;;;;;2.40;1.67;;;;;;;-1.43;73.46;98433.53;5040302;28;20030;-56
2022/01/16 01:12:25;;;;;;;2.60;1.75;;;;;;;-1.43;72.97;98429.28;5060286;28;20317;-55
2022/01/16 01:15:08;;;;;;;3.20;1.98;;;;;;;-1.40;74.38;98448.78;5046725;28;20057;-57
2022/01/16 01:17:46;;;;;;;2.20;1.67;;;;;;;-1.44;73.46;98480.06;5045118;28;20045;-57
2022/01/16 01:20:15;;;;;;;3.42;1.70;;;;;;;-1.53;73.87;98459.72;5051304;28;20106;-57
2022/01/16 01:22:41;;;;;;;2.10;1.55;;;;;;;-1.50;73.12;98449.56;5045679;28;20040;-57
2022/01/16 01:25:09;;;;;;;4.95;3.33;;;;;;;-1.37;73.10;98466.56;5053910;28;20076;-57
2022/01/16 01:27:35;;;;;;;2.85;1.80;;;;;;;-1.48;73.04;98474.13;5050956;28;20092;-57
2022/01/16 01:30:07;;;;;;;3.03;1.77;;;;;;;-1.46;72.85;98477.53;5044462;28;20033;-57
2022/01/16 01:32:36;;;;;;;2.85;1.90;;;;;;;-1.52;73.64;98476.66;5051251;28;20033;-58
2022/01/16 01:35:02;;;;;;;2.92;1.67;;;;;;;-1.58;72.94;98492.69;5048884;28;20310;-57
2022/01/16 01:37:28;;;;;;;4.15;2.20;;;;;;;-1.55;73.00;98490.16;5042769;28;20029;-58
2022/01/16 01:39:54;;;;;;;3.50;1.92;;;;;;;-1.57;71.65;98487.59;5031477;28;20047;-57
2022/01/16 01:42:20;;;;;;;4.35;2.30;;;;;;;-1.57;72.83;98505.38;5044882;28;20037;-58
2022/01/16 01:53:00;;;;;;;2.25;1.83;;;;;;;-1.62;71.71;98471.47;5049454;28;20033;-57
2022/01/16 01:55:26;;;;;;;2.67;1.70;;;;;;;-1.52;72.73;98496.94;5059984;28;20073;-57
2022/01/16 01:57:52;;;;;;;2.97;2.13;;;;;;;-1.54;71.98;98508.75;5050052;28;20041;-56
2022/01/16 02:00:20;;;;;;;2.55;1.88;;;;;;;-1.77;70.76;98478.97;5042860;28;20132;-56
2022/01/16 02:05:27;;;;;;;2.85;2.10;;;;;;;-1.55;71.00;98548.53;5056539;28;20028;-57
2022/01/16 02:07:53;;;;;;;3.03;2.08;;;;;;;-1.64;71.43;98548.44;5040576;28;20084;-57
2022/01/16 02:10:19;;;;;;;2.72;2.00;;;;;;;-1.57;70.36;98566.31;5035162;28;20280;-57
2022/01/16 02:12:46;;;;;;;2.70;1.85;;;;;;;-1.80;70.89;98555.06;5047966;28;20342;-57
2022/01/16 02:28:02;;;;;;;3.03;1.67;;;;;;;-1.73;70.39;98595.75;5054456;28;20040;-58
2022/01/16 02:31:38;;;;;;;;;;;;;;;-1.98;70.42;98461.88;5045318;28;20048;-58
2022/01/16 02:36:51;;;;;;;2.08;1.70;;;;;;;-2.17;70.60;98438.88;5053037;28;20029;-58
2022/01/16 02:39:17;;;;;;;2.90;2.13;;;;;;;-2.22;70.29;98491.25;5044322;28;20037;-58
2022/01/16 02:41:47;;;;;;;2.63;2.17;;;;;;;-2.00;70.48;98543.03;5042205;28;20065;-58
2022/01/16 02:44:22;;;;;;;2.22;1.50;;;;;;;-2.45;69.71;98542.53;5056142;28;20029;-58
2022/01/16 02:46:48;;;;;;;2.67;1.83;;;;;;;-2.12;69.53;98545.47;5041239;28;20068;-58
2022/01/16 02:49:20;;;;;;;3.67;1.83;;;;;;;-2.16;69.60;98538.66;5044417;28;20033;-57
2022/01/16 02:51:46;;;;;;;2.78;1.90;;;;;;;-2.22;70.15;98513.19;5053625;28;20036;-57
2022/01/16 02:54:12;;;;;;;2.47;1.63;;;;;;;-2.20;70.37;98567.34;5044610;28;20026;-56
2022/01/16 02:56:39;;;;;;;3.50;1.90;;;;;;;-2.24;69.37;98568.13;5039704;28;20060;-57
2022/01/16 02:59:04;;;;;;;2.10;1.73;;;;;;;-2.20;70.38;98514.94;5050812;28;20052;-57
2022/01/16 03:01:30;;;;;;;2.85;1.67;;;;;;;-2.18;70.20;98507.34;5052427;28;20321;-57
2022/01/16 03:03:55;;;;;;;4.45;1.92;;;;;;;-2.45;69.30;98513.81;5044614;28;20026;-57
2022/01/16 03:06:26;;;;;;;2.25;1.50;;;;;;;-2.23;69.65;98573.22;5058942;28;20059;-57
2022/01/16 03:08:51;;;;;;;3.23;1.70;;;;;;;-2.18;70.11;98564.00;5052281;28;20085;-57
2022/01/16 03:11:24;;;;;;;2.30;1.55;;;;;;;-2.28;68.84;98569.75;5036916;28;20038;-57
2022/01/16 03:13:50;;;;;;;2.80;1.90;;;;;;;-2.18;68.97;98588.47;5024753;28;20041;-57
2022/01/16 03:16:18;;;;;;;2.70;1.77;;;;;;;-2.57;68.94;98508.59;5052622;28;20071;-56
2022/01/16 03:24:14;;;;;;;2.75;1.67;;;;;;;-2.14;69.92;98592.75;5052724;28;20337;-56
2022/01/16 03:26:40;;;;;;;1.92;1.50;;;;;;;-2.09;68.80;98599.59;5047358;28;20033;-56
2022/01/16 03:29:05;;;;;;;3.28;1.70;;;;;;;-2.02;69.40;98592.91;5057567;28;20037;-57
2022/01/16 03:31:31;;;;;;;2.83;1.80;;;;;;;-2.11;68.91;98593.66;5050385;28;20029;-56
2022/01/16 03:33:57;;;;;;;3.03;1.60;;;;;;;-2.02;69.58;98595.44;5048870;28;20033;-56
2022/01/16 03:36:22;;;;;;;2.58;1.75;;;;;;;-2.08;68.91;98587.78;5044906;28;20025;-57
2022/01/16 03:38:48;;;;;;;1.98;1.52;;;;;;;-2.17;69.53;98600.34;5054069;28;20033;-57
2022/01/16 03:41:14;;;;;;;3.00;2.00;;;;;;;-2.14;69.19;98635.88;5042564;28;20044;-56
2022/01/16 03:43:39;;;;;;;2.67;1.65;;;;;;;-2.08;68.58;98634.28;5030001;28;20065;-56
2022/01/16 03:46:05;;;;;;;2.47;1.77;;;;;;;-2.08;69.44;98638.50;5057351;28;20322;-57
2022/01/16 03:48:31;;;;;;;2.38;1.73;;;;;;;-2.04;69.33;98630.06;5051546;28;20064;-57
2022/01/16 03:50:56;;;;;;;3.50;1.70;;;;;;;-2.07;70.05;98645.25;5043143;28;20104;-56
2022/01/16 03:53:22;;;;;;;2.65;1.48;;;;;;;-1.94;70.09;98652.19;5055130;28;20213;-57
2022/01/16 03:55:48;;;;;;;2.10;1.65;;;;;;;-2.02;70.32;98641.09;5061338;28;20365;-58
2022/01/16 03:58:14;;;;;;;2.22;1.58;;;;;;;-2.06;70.30;98652.03;5051900;28;20313;-57
2022/01/16 04:00:40;;;;;;;3.60;2.20;;;;;;;-1.96;70.66;98647.94;5052036;28;20098;-57
2022/01/16 04:03:06;;;;;;;3.13;1.98;;;;;;;-1.94;71.09;98651.31;5060376;28;20024;-57
2022/01/16 04:05:31;;;;;;;3.22;2.15;;;;;;;-2.04;70.22;98645.28;5047912;28;20032;-57
2022/01/16 04:07:59;;;;;;;4.30;1.90;;;;;;;-1.89;69.54;98651.41;5037459;28;20079;-55
2022/01/16 04:10:25;;;;;;;3.22;1.90;;;;;;;-1.92;70.21;98654.75;5045342;28;20021;-55
2022/01/16 04:12:51;;;;;;;3.13;1.73;;;;;;;-1.82;70.23;98661.63;5047859;28;20033;-55
2022/01/16 04:17:45;;;;;;;2.72;1.58;;;;;;;-1.89;69.84;98670.00;5059050;28;20040;-55
2022/01/16 04:20:15;;;;;;;2.65;1.80;;;;;;;-1.93;70.06;98661.50;5051283;28;20036;-55
2022/01/16 04:22:45;;;;;;;2.13;1.63;;;;;;;-1.86;70.87;98679.34;5044947;28;20103;-56
2022/01/16 04:25:11;;;;;;;3.28;1.85;;;;;;;-1.82;70.90;98676.84;5040109;28;20035;-56
2022/01/16 04:27:37;;;;;;;2.58;1.80;;;;;;;-1.87;71.03;98687.78;5051571;28;20052;-57
2022/01/16 04:30:04;;;;;;;2.65;1.60;;;;;;;-1.80;70.55;98677.72;5053459;28;20207;-57
2022/01/16 04:32:30;;;;;;;3.95;2.50;;;;;;;-1.67;71.04;98688.84;5049134;28;20048;-56
2022/01/16 04:34:55;;;;;;;2.83;1.90;;;;;;;-1.68;70.12;98684.63;5055981;28;20080;-57
2022/01/16 04:37:21;;;;;;;2.22;1.70;;;;;;;-1.81;71.35;98692.91;5054414;28;20076;-57
2022/01/16 04:39:51;;;;;;;2.05;1.25;;;;;;;-1.83;70.95;98690.38;5049782;28;20067;-56
2022/01/16 04:45:02;;;;;;;2.40;1.90;;;;;;;-1.84;70.46;98693.75;5049424;28;20067;-56
2022/01/16 04:47:30;;;;;;;2.80;1.60;;;;;;;-1.86;70.40;98694.56;5049391;28;20067;-56
2022/01/16 04:49:56;;;;;;;2.92;1.98;;;;;;;-1.82;70.38;98696.31;5057348;28;20037;-56
2022/01/16 04:52:21;;;;;;;2.10;1.60;;;;;;;-1.84;70.32;98698.84;5057582;28;20051;-57
2022/01/16 04:54:47;;;;;;;1.92;1.42;;;;;;;-1.75;70.63;98704.00;5048865;28;20025;-57
2022/01/16 04:57:13;;;;;;;5.10;1.95;;;;;;;-1.83;70.02;98704.75;5050441;28;20036;-57
2022/01/16 04:59:40;;;;;;;1.85;1.35;;;;;;;-1.82;69.88;98707.31;5057591;28;20033;-57
2022/01/16 05:02:05;;;;;;;1.63;1.10;;;;;;;-1.80;70.64;98715.78;5053352;28;20044;-57
2022/01/16 05:04:31;;;;;;;2.03;1.20;;;;;;;-1.92;70.48;98716.47;5047011;28;20034;-57
2022/01/16 05:06:56;;;;;;;3.03;1.55;;;;;;;-1.86;69.33;98720.78;5046111;28;20314;-58
2022/01/16 05:09:22;;;;;;;3.08;1.52;;;;;;;-1.85;69.74;98719.09;5050785;28;20024;-56
2022/01/16 05:11:54;;;;;;;1.33;1.15;;;;;;;-1.98;69.58;98731.63;5045079;28;20037;-56
2022/01/16 05:17:03;;;;;;;1.02;1.00;;;;;;;-1.96;69.52;98740.09;5039839;28;19909;-56
2022/01/16 05:19:29;;;;;;;3.08;1.40;;;;;;;-1.89;69.57;98733.44;5050793;28;20310;-56
2022/01/16 05:21:54;;;;;;;2.15;1.52;;;;;;;-1.89;70.04;98730.06;5057286;28;20033;-56
2022/01/16 05:24:20;;;;;;;2.72;1.50;;;;;;;-1.94;70.61;98753.69;5052965;28;20037;-56
2022/01/16 05:26:45;;;;;;;1.58;1.30;;;;;;;-1.93;69.65;98739.28;5046131;28;20025;-56
2022/01/16 05:29:12;;;;;;;1.23;1.10;;;;;;;-2.04;69.20;98738.28;5059384;28;20029;-57
2022/01/16 05:31:45;;;;;;;2.33;1.52;;;;;;;-2.08;68.78;98739.97;5053765;28;20075;-57
2022/01/16 05:34:12;;;;;;;1.67;1.27;;;;;;;-2.44;68.47;98695.47;5031443;28;20211;-57
2022/01/16 05:36:38;;;;;;;1.10;1.00;;;;;;;-2.05;68.94;98762.81;5058919;28;20036;-58
2022/01/16 05:39:03;;;;;;;1.45;0.98;;;;;;;-2.20;67.92;98765.97;5054020;28;20036;-58
2022/01/16 05:41:29;;;;;;;1.00;0.90;;;;;;;-2.02;68.59;98774.66;5045344;28;20033;-58
2022/01/16 05:43:55;;;;;;;1.48;1.10;;;;;;;-2.02;69.42;98772.13;5052763;28;20067;-55
2022/01/16 05:46:20;;;;;;;2.00;1.15;;;;;;;-2.04;68.61;98778.88;5051495;28;20329;-57
2022/01/16 05:48:46;;;;;;;1.63;1.10;;;;;;;-2.02;67.24;98784.81;5037156;28;20200;-57
2022/01/16 05:51:11;;;;;;;1.45;1.15;;;;;;;-2.03;67.45;98789.03;5046258;28;20218;-57
2022/01/16 05:53:37;;;;;;;0.82;0.63;;;;;;;-2.09;68.34;98783.91;5046294;28;20037;-57
2022/01/16 05:56:04;;;;;;;0.90;0.80;;;;;;;-2.02;68.54;98790.75;5035791;28;20049;-58
2022/01/16 05:58:29;;;;;;;1.50;0.80;;;;;;;-2.05;67.93;98795.78;5046125;28;20036;-57
2022/01/16 06:00:55;;;;;;;1.27;1.10;;;;;;;-2.06;67.64;98804.22;5058212;28;20033;-56
2022/01/16 06:03:21;;;;;;;2.10;1.02;;;;;;;-2.02;68.21;98803.44;5047958;28;20030;-56
2022/01/16 06:05:47;;;;;;;1.67;0.93;;;;;;;-2.04;68.72;98807.63;5042800;28;20338;-56
2022/01/16 06:08:14;;;;;;;1.08;0.90;;;;;;;-2.09;68.78;98794.88;5052567;28;20091;-56
2022/01/16 06:10:40;;;;;;;1.88;1.13;;;;;;;-2.02;68.73;98805.97;5055535;28;20033;-56
2022/01/16 06:13:05;;;;;;;2.30;1.10;;;;;;;-2.20;67.39;98805.72;5047108;28;20029;-55
2022/01/16 06:15:32;;;;;;;2.17;1.33;;;;;;;-2.16;67.70;98804.94;5044504;28;20052;-56
2022/01/16 06:17:58;;;;;;;2.03;1.08;;;;;;;-2.12;67.89;98812.59;5043753;28;20318;-56
2022/01/16 06:20:24;;;;;;;1.33;0.90;;;;;;;-2.18;66.51;98804.03;5051176;28;20029;-55
2022/01/16 06:22:50;;;;;;;1.02;0.93;;;;;;;-2.24;67.31;98812.41;5045750;28;20108;-57
2022/01/16 06:25:15;;;;;;;1.52;1.10;;;;;;;-2.23;65.85;98808.19;5051183;28;20029;-56
2022/01/16 06:27:41;;;;;;;1.67;0.80;;;;;;;-2.23;65.09;98808.19;5049169;28;20033;-56
2022/01/16 06:30:09;;;;;;;0.88;0.57;;;;;;;-2.24;65.32;98809.03;5045141;28;20030;-55
2022/01/16 06:32:35;;;;;;;0.60;0.60;;;;;;;-2.25;64.99;98805.66;5044150;28;20025;-56
2022/01/16 06:35:01;;;;;;;1.20;0.90;;;;;;;-2.06;65.71;98803.38;5040776;28;20071;-56
2022/01/16 06:37:28;;;;;;;0.85;0.52;;;;;;;-2.07;65.75;98810.13;5033387;28;20033;-57
2022/01/16 06:39:54;;;;;;;1.10;0.80;;;;;;;-2.03;66.05;98816.13;5043996;28;20041;-58
2022/01/16 06:42:19;;;;;;;0.88;0.60;;;;;;;-1.97;66.30;98817.03;5038735;28;20222;-58
2022/01/16 06:44:45;;;;;;;1.25;0.80;;;;;;;-2.03;65.05;98826.25;5037997;28;20330;-58
2022/01/16 06:47:11;;;;;;;1.13;0.73;;;;;;;-1.91;66.01;98828.97;5043843;28;20040;-57
2022/01/16 06:49:36;;;;;;;1.10;0.70;;;;;;;-1.89;66.66;98832.38;5055012;28;20025;-57
2022/01/16 06:52:03;;;;;;;0.75;0.70;;;;;;;-1.94;65.86;98818.78;5049221;28;20273;-57
2022/01/16 06:54:29;;;;;;;0.90;0.80;;;;;;;-1.82;66.73;98828.25;5043838;28;20081;-57
2022/01/16 06:56:54;;;;;;;1.20;1.10;;;;;;;-1.78;65.82;98829.97;5052582;28;20029;-58
2022/01/16 06:59:20;;;;;;;1.48;0.90;;;;;;;-1.67;65.90;98822.53;5044556;28;20317;-57
2022/01/16 07:01:45;;;;;;;2.70;1.23;;;;;;;-1.78;65.93;98829.97;5042847;28;20021;-57
2022/01/16 07:04:11;;;;;;;1.05;0.95;;;;;;;-1.82;66.28;98823.19;5045444;28;20029;-57
2022/01/16 07:06:36;;;;;;;1.65;0.90;;;;;;;-1.80;67.22;98831.66;5050935;28;20029;-58
2022/01/16 07:09:03;;;;;;;1.00;0.80;;;;;;;-1.92;67.12;98843.34;5041854;28;20022;-57
2022/01/16 07:11:29;;;;;;;0.95;0.82;;;;;;;-1.76;67.16;98846.09;5042311;28;20322;-57
2022/01/16 07:13:54;;;;;;;0.93;0.73;;;;;;;-1.78;66.33;98853.69;5042033;28;20029;-57
2022/01/16 07:16:21;;;;;;;2.70;0.90;;;;;;;-1.77;66.06;98839.31;5034784;28;20032;-56
2022/01/16 07:18:47;;;;;;;1.10;0.95;;;;;;;-1.75;66.79;98853.72;5039006;28;20104;-57
2022/01/16 07:21:13;;;;;;;1.45;1.17;;;;;;;-1.71;66.71;98847.03;5052372;28;20041;-58
2022/01/16 07:23:44;;;;;;;0.95;0.82;;;;;;;-1.60;66.42;98842.94;5038183;28;20021;-58
2022/01/16 07:26:10;;;;;;;1.33;1.02;;;;;;;-1.76;65.31;98846.94;5040727;28;20093;-58
2022/01/16 07:28:36;;;;;;;1.35;1.10;;;;;;;-1.57;65.81;98854.81;5041840;28;20033;-58
2022/01/16 07:31:02;;;;;;;2.05;1.17;;;;;;;-1.80;65.52;98846.88;5049420;28;20039;-57
2022/01/16 07:33:27;;;;;;;1.42;0.90;;;;;;;-1.70;65.01;98846.19;5038598;28;20033;-57
2022/01/16 07:35:53;;;;;;;1.92;0.85;;;;;;;-1.74;65.05;98846.97;5057518;28;20033;-57
2022/01/16 07:38:19;;;;;;;1.52;0.82;;;;;;;-1.70;65.06;98855.50;5051895;28;20033;-57
2022/01/16 07:40:44;;;;;;;1.20;0.80;;;;;;;-1.97;65.32;98867.78;5034888;28;20057;-56
2022/01/16 07:43:10;;;;;;;2.67;0.73;;;;;;;-2.01;64.76;98860.09;5051364;28;20032;-56
2022/01/16 07:45:37;;;;;;;0.63;0.60;;;;;;;-1.93;64.89;98863.63;5051715;28;20112;-56
2022/01/16 07:48:05;;;;;;;0.90;0.70;;;;;;;-1.86;65.44;98867.09;5043417;28;20041;-57
2022/01/16 07:50:31;;;;;;;0.60;0.60;;;;;;;-1.79;64.88;98873.97;5049090;28;20029;-57
2022/01/16 07:52:56;;;;;;;0.80;0.80;;;;;;;-1.88;65.16;98869.63;5046361;28;20313;-57
2022/01/16 07:55:25;;;;;;;0.88;0.70;;;;;;;-1.91;64.53;98870.44;5043793;28;20064;-57
2022/01/16 07:57:51;;;;;;;1.65;0.75;;;;;;;-1.77;64.38;98868.09;5042482;28;20095;-57
2022/01/16 08:00:17;;;;;;;1.15;1.00;;;;;;;-1.77;64.70;98854.53;5042156;28;20034;-56
2022/01/16 08:02:43;;;;;;;2.40;0.80;;;;;;;-1.62;63.73;98875.06;5050213;28;20029;-57
2022/01/16 08:05:08;;;;;;;2.75;1.00;;;;;;;-1.52;64.05;98873.53;5042866;28;20030;-56
2022/01/16 08:07:34;;;;;;;1.15;0.90;;;;;;;-1.43;63.61;98863.47;5042910;28;20057;-57
2022/01/16 08:10:00;;;;;;;1.20;0.90;;;;;;;-1.45;65.00;98867.69;5049430;28;20025;-57
2022/01/16 08:12:25;;;;;;;1.73;1.02;;;;;;;-1.46;63.52;98880.38;5037375;28;20029;-59
2022/01/16 08:14:51;;;;;;;1.90;0.95;;;;;;;-1.39;62.81;98874.53;5036933;28;20079;-58
2022/01/16 08:17:16;;;;;;;6.30;1.30;;;;;;;-1.36;64.48;98882.19;5042214;28;20043;-57
2022/01/16 08:19:42;;;;;;;0.82;0.80;;;;;;;-1.46;63.31;98882.91;5042336;28;20032;-56
2022/01/16 08:22:10;;;;;;;1.40;0.98;;;;;;;-1.33;62.81;98884.75;5024253;28;20052;-57
2022/01/16 08:24:37;;;;;;;2.53;1.35;;;;;;;-1.32;61.90;98881.41;5038395;28;20368;-57
2022/01/16 08:27:02;;;;;;;1.60;0.90;;;;;;;-1.10;62.14;98887.63;5041634;28;20057;-57
2022/01/16 08:29:28;;;;;;;1.90;1.42;;;;;;;-1.09;62.90;98891.84;5043393;28;20049;-57
2022/01/16 08:31:54;;;;;;;1.08;0.80;;;;;;;-1.30;62.50;98892.41;5052953;28;20025;-56
2022/01/16 08:34:20;;;;;;;1.90;0.80;;;;;;;-1.38;63.23;98891.50;5042143;28;20206;-57
2022/01/16 08:36:45;;;;;;;2.17;1.00;;;;;;;-1.39;64.90;98892.31;5042773;28;20048;-57
2022/01/16 08:39:11;;;;;;;0.70;0.70;;;;;;;-1.34;63.49;98893.25;5041377;28;20057;-57
2022/01/16 08:41:37;;;;;;;1.95;0.75;;;;;;;-1.27;63.33;98884.00;5045803;28;20214;-56
2022/01/16 08:44:05;;;;;;;1.00;0.70;;;;;;;-1.40;63.61;98881.31;5045717;28;20144;-57
2022/01/16 08:46:31;;;;;;;1.45;0.52;;;;;;;-1.36;63.36;98884.72;5045792;28;20063;-57
2022/01/16 08:48:56;;;;;;;0.68;0.68;;;;;;;-1.28;64.18;98884.84;5056188;28;20057;-56
2022/01/16 08:51:22;;;;;;;1.00;0.77;;;;;;;-1.22;64.08;98883.22;5051150;28;20052;-56
2022/01/16 08:53:48;;;;;;;0.73;0.68;;;;;;;-1.20;64.38;98888.31;5045472;28;20092;-56
2022/01/16 08:56:14;;;;;;;11.43;6.03;;;;;;;-1.32;64.15;98896.63;5056258;28;20676;-56
2022/01/16 08:58:40;;;;;;;2.22;1.40;;;;;;;-1.56;64.85;98902.22;5046159;28;20249;-56
2022/01/16 09:01:06;;;;;;;1.42;1.00;;;;;;;-1.36;64.79;98905.03;5053562;28;20040;-56
2022/01/16 09:03:32;;;;;;;2.05;1.17;;;;;;;-1.77;64.54;98863.03;5059099;28;20136;-56
2022/01/16 09:05:57;;;;;;;2.80;1.23;;;;;;;-1.87;64.34;98857.78;5041617;28;20041;-59
2022/01/16 09:08:23;;;;;;;2.70;1.00;;;;;;;-1.37;63.92;98912.66;5035086;28;20203;-57
2022/01/16 09:10:48;;;;;;;2.25;0.82;;;;;;;-1.54;64.05;98894.63;5057536;28;20333;-56
2022/01/16 09:13:18;;;;;;;1.30;0.63;;;;;;;-1.44;64.55;98896.47;5045063;28;20038;-58
2022/01/16 09:15:45;;;;;;;2.20;1.10;;;;;;;-1.51;63.92;98894.66;5044578;28;20041;-58
2022/01/16 09:18:11;;;;;;;2.80;1.38;;;;;;;-1.33;64.98;98905.09;5045638;28;20083;-58
2022/01/16 09:20:38;;;;;;;2.15;1.60;;;;;;;-1.55;63.86;98893.78;5044360;28;20025;-58
2022/01/16 09:23:04;;;;;;;1.33;0.60;;;;;;;-1.52;63.18;98903.13;5048818;28;20353;-57
2022/01/16 09:25:30;;;;;;;1.58;0.80;;;;;;;-1.57;64.34;98896.31;5045769;28;20083;-58
2022/01/16 09:27:56;;;;;;;2.13;1.10;;;;;;;-1.46;63.83;98905.75;5045627;28;20112;-58
2022/01/16 09:30:22;;;;;;;2.65;1.27;;;;;;;-1.43;64.15;98909.19;5042126;28;20036;-58
2022/01/16 09:32:49;;;;;;;1.67;1.00;;;;;;;-1.34;63.91;98903.41;5035080;28;20032;-56
2022/01/16 09:35:15;;;;;;;3.28;1.30;;;;;;;-1.39;64.15;98898.22;5044539;28;20451;-58
2022/01/16 09:37:42;;;;;;;2.72;1.17;;;;;;;-1.31;64.06;98913.59;5044752;28;20322;-58
2022/01/16 09:40:10;;;;;;;2.97;1.23;;;;;;;-1.19;65.05;98882.41;5047446;28;20063;-57
2022/01/16 09:42:36;;;;;;;1.65;0.82;;;;;;;-1.14;64.70;98879.94;5053901;28;20029;-58
2022/01/16 09:45:06;;;;;;;1.83;1.35;;;;;;;-1.56;63.25;98821.00;5052876;28;20125;-59
2022/01/16 09:47:31;;;;;;;2.38;1.30;;;;;;;-1.32;63.73;98870.41;5047103;28;20041;-63
2022/01/16 09:49:57;;;;;;;2.08;1.10;;;;;;;-1.29;64.55;98867.91;5045334;28;20064;-58
2022/01/16 09:52:22;;;;;;;1.52;1.02;;;;;;;-1.20;63.98;98875.63;5043988;28;20036;-59
2022/01/16 09:54:49;;;;;;;1.95;1.30;;;;;;;-1.13;63.11;98858.78;5046774;28;20033;-59
2022/01/16 09:57:15;;;;;;;1.80;1.30;;;;;;;-0.92;63.04;98870.88;5049068;28;20033;-59
2022/01/16 09:59:44;;;;;;;7.78;4.35;;;;;;;-0.94;62.52;98885.25;5053342;28;20033;-58
2022/01/16 10:02:09;;;;;;;3.80;1.70;;;;;;;-0.95;63.03;98871.69;5034947;28;20025;-58
2022/01/16 10:04:38;;;;;;;5.00;1.67;;;;;;;-1.31;62.18;98811.13;5029691;28;20044;-57
2022/01/16 10:07:07;;;;;;;3.85;1.70;;;;;;;-0.98;63.25;98876.75;5043246;28;20036;-57
2022/01/16 10:09:37;;;;;;;4.78;1.70;;;;;;;-0.86;62.66;98881.09;5042687;28;20094;-58
2022/01/16 10:12:13;;;;;;;2.50;1.42;;;;;;;-0.80;62.29;98876.09;5042167;28;20025;-59
2022/01/16 10:14:47;;;;;;;3.13;1.60;;;;;;;-0.78;63.05;98871.88;5043572;28;20172;-57
2022/01/16 10:17:21;;;;;;;2.58;1.73;;;;;;;-0.68;62.81;98867.75;5041630;28;20318;-57
2022/01/16 10:20:03;;;;;;;2.83;1.75;;;;;;;-0.87;62.18;98879.41;5041285;28;20036;-60
2022/01/16 10:22:43;;;;;;;2.85;1.50;;;;;;;-0.84;62.32;98863.34;5042372;28;20207;-58
2022/01/16 10:25:11;;;;;;;2.80;1.55;;;;;;;-0.71;62.06;98863.50;5041965;28;20029;-58
2022/01/16 10:27:41;;;;;;;3.50;1.70;;;;;;;-0.77;61.23;98865.97;5044211;28;20048;-58
2022/01/16 10:30:09;;;;;;;1.77;1.30;;;;;;;-0.75;62.25;98855.81;5058933;28;20037;-58
2022/01/16 10:32:45;;;;;;;2.63;1.35;;;;;;;-0.61;61.56;98863.59;5048762;28;20029;-58
2022/01/16 10:35:17;;;;;;;3.75;1.45;;;;;;;-0.63;61.76;98868.63;5041434;28;20048;-59
2022/01/16 10:37:48;;;;;;;2.42;1.67;;;;;;;-0.62;62.45;98855.09;5041828;28;20029;-60
2022/01/16 10:40:18;;;;;;;3.80;1.52;;;;;;;-0.81;61.45;98836.28;5042784;28;20033;-60
2022/01/16 10:42:52;;;;;;;3.08;1.50;;;;;;;-0.74;62.38;98844.78;5043341;28;20036;-59
2022/01/16 10:45:22;;;;;;;2.75;1.80;;;;;;;-0.77;61.70;98835.47;5043954;28;20337;-59
2022/01/16 10:47:54;;;;;;;2.20;1.65;;;;;;;-0.72;62.15;98830.44;5043504;28;20061;-57
2022/01/16 10:50:22;;;;;;;;;;;;;;;-0.63;62.30;98832.19;5049062;28;20037;-57
2022/01/16 10:52:53;;;;;;;2.25;1.90;;;;;;;-1.02;61.69;98750.50;5058240;28;19911;-57
2022/01/16 10:55:44;;;;;;;4.15;1.90;;;;;;;-0.90;62.30;98765.00;5050316;28;20029;-57
2022/01/16 10:58:41;;;;;;;3.22;1.90;;;;;;;-0.54;63.55;98834.84;5033068;28;20049;-58
2022/01/16 11:01:19;;;;;;;3.17;1.98;;;;;;;-0.54;62.92;98834.84;5058603;28;20306;-59
2022/01/16 11:03:46;;;;;;;3.70;2.05;;;;;;;-0.46;63.49;98832.38;5051524;28;20043;-58
2022/01/16 11:06:12;;;;;;;4.40;2.00;;;;;;;-0.78;63.53;98771.91;5046536;28;20044;-57
2022/01/16 11:08:39;;;;;;;3.72;2.05;;;;;;;-0.88;63.37;98787.06;5044220;28;20041;-57
2022/01/16 11:11:07;;;;;;;3.10;2.20;;;;;;;-0.44;63.91;98843.38;5052466;28;20289;-58
2022/01/16 11:13:36;;;;;;;8.18;2.50;;;;;;;-0.43;64.41;98840.00;5043789;28;20039;-57
2022/01/16 11:16:04;;;;;;;3.90;1.88;;;;;;;-0.46;62.12;98840.00;5050499;28;20353;-57
2022/01/16 11:18:35;;;;;;;2.95;2.20;;;;;;;-0.82;63.16;98772.72;5044724;28;20317;-57
2022/01/16 11:26:23;;;;;;;2.95;2.22;;;;;;;-0.51;63.46;98839.97;5039688;28;20218;-57
2022/01/16 11:28:56;;;;;;;5.32;1.92;;;;;;;-0.44;63.36;98846.81;5044016;28;20093;-56
2022/01/16 11:31:23;;;;;;;3.53;2.15;;;;;;;-0.58;63.58;98841.59;5041175;28;20040;-58
2022/01/16 11:33:49;;;;;;;3.03;2.05;;;;;;;-0.45;62.86;98856.97;5041705;28;20107;-60
2022/01/16 11:36:18;;;;;;;4.30;2.53;;;;;;;-0.89;62.89;98792.97;5044132;28;20065;-57
2022/01/16 11:38:51;;;;;;;3.00;1.95;;;;;;;-0.46;63.85;98861.19;5038301;28;20036;-57
2022/01/16 11:41:23;;;;;;;5.10;2.45;;;;;;;-0.48;64.73;98851.84;5051253;28;20096;-57
2022/01/16 11:43:50;;;;;;;3.90;2.25;;;;;;;-0.45;64.42;98867.97;5046308;28;20269;-57
2022/01/16 11:46:17;;;;;;;4.25;2.65;;;;;;;-0.40;65.42;98862.94;5055239;28;20025;-58
2022/01/16 11:49:00;;;;;;;4.90;2.85;;;;;;;-0.74;65.98;98809.22;5044288;28;20033;-59
2022/01/16 11:51:35;;;;;;;5.05;2.30;;;;;;;-0.43;64.00;98870.53;5041223;28;20343;-57
2022/01/16 11:54:08;;;;;;;3.45;2.10;;;;;;;-0.32;64.73;98874.03;5049920;28;20033;-58
2022/01/16 11:56:40;;;;;;;3.55;1.60;;;;;;;-0.48;64.83;98862.03;5050191;28;20023;-59
2022/01/16 11:59:15;;;;;;;;;;;;;;;-0.50;64.90;98861.16;5045048;28;20310;-55
2022/01/16 12:01:45;;;;;;;2.75;1.80;;;;;;;-0.55;66.01;98856.03;5046762;28;19904;-57
2022/01/16 12:04:29;;;;;;;2.38;1.58;;;;;;;-0.42;66.06;98849.34;5048797;28;20120;-57
2022/01/16 12:07:21;;;;;;;4.40;2.60;;;;;;;-0.39;64.79;98846.84;5044102;28;20040;-57
2022/01/16 12:09:50;;;;;;;2.50;2.00;;;;;;;-0.41;66.37;98841.75;5042539;28;20056;-59
2022/01/16 12:12:16;;;;;;;4.50;2.33;;;;;;;-0.46;66.24;98837.44;5042936;28;20032;-59
2022/01/16 12:15:04;;;;;;;4.32;2.40;;;;;;;-0.50;66.83;98843.34;5043150;28;20278;-59
2022/01/16 12:17:47;;;;;;;3.53;2.00;;;;;;;-0.43;67.82;98842.56;5038099;28;20101;-58
2022/01/16 12:20:16;;;;;;;2.33;1.77;;;;;;;-0.53;66.27;98841.63;5057103;28;20309;-59
2022/01/16 12:22:52;;;;;;;3.42;1.90;;;;;;;-0.42;67.01;98841.72;5040650;28;20048;-58
2022/01/16 12:25:24;;;;;;;4.53;2.58;;;;;;;-0.42;66.29;98836.63;5032506;28;20037;-57